Time;durP1;ratioP1;P1;durP2;ratioP2;P2;SDS_P1;SDS_P2;PMS_P1;PMS_P2;Temp;Humidity;BMP_temperature;BMP_pressure;BME280_temperature;BME280_humidity;BME280_pressure;Samples;Min_cycle;Max_cycle;Signal;HPM_P1;HPM_P2
2022/03/01 00:01:39;;;;;;;12.88;10.50;;;2.50;99.90;;;;;;5062346;28;20794;-58
2022/03/01 00:04:04;;;;;;;12.48;10.30;;;2.50;99.90;;;;;;5060726;28;20040;-57
2022/03/01 00:06:30;;;;;;;12.20;9.88;;;2.50;99.90;;;;;;5063705;28;20036;-59
2022/03/01 00:08:55;;;;;;;13.88;10.38;;;2.40;99.90;;;;;;5064322;28;20051;-58
2022/03/01 00:11:22;;;;;;;14.98;11.18;;;2.40;99.90;;;;;;5062488;28;20036;-58
2022/03/01 00:13:48;;;;;;;12.57;10.38;;;2.40;99.90;;;;;;5062086;28;20050;-57
2022/03/01 00:16:14;;;;;;;13.90;10.43;;;2.50;99.90;;;;;;5063443;28;20394;-58
2022/03/01 00:18:40;;;;;;;14.10;11.13;;;2.40;99.90;;;;;;5062202;28;20044;-58
2022/03/01 00:21:06;;;;;;;15.15;10.77;;;2.40;99.90;;;;;;5062956;28;20040;-58
2022/03/01 00:23:32;;;;;;;15.68;10.82;;;2.40;99.90;;;;;;5061210;28;20044;-59
2022/03/01 00:25:58;;;;;;;15.70;11.00;;;2.30;99.90;;;;;;5061968;28;20057;-59
2022/03/01 00:28:24;;;;;;;13.02;10.32;;;2.30;99.90;;;;;;5061243;28;20036;-59
2022/03/01 00:30:49;;;;;;;14.00;10.75;;;2.30;99.90;;;;;;5062820;28;20405;-58
2022/03/01 00:33:15;;;;;;;17.30;9.93;;;2.20;99.90;;;;;;5060996;28;20048;-59
2022/03/01 00:35:41;;;;;;;14.48;10.07;;;2.10;99.90;;;;;;5062735;28;20044;-59
2022/03/01 00:38:06;;;;;;;16.05;10.50;;;2.10;99.90;;;;;;5063635;28;20051;-59
2022/03/01 00:40:32;;;;;;;11.77;10.30;;;2.10;99.90;;;;;;5063325;28;20044;-58
2022/03/01 00:42:57;;;;;;;14.65;10.43;;;2.00;99.90;;;;;;5062031;28;20040;-59
2022/03/01 00:45:23;;;;;;;13.10;10.63;;;2.00;99.90;;;;;;5061683;28;20036;-59
2022/03/01 00:47:48;;;;;;;13.45;11.35;;;2.00;99.90;;;;;;5061508;28;20040;-59
2022/03/01 00:50:14;;;;;;;11.45;10.20;;;2.00;99.90;;;;;;5063235;28;20032;-59
2022/03/01 00:52:39;;;;;;;14.65;10.98;;;1.90;99.90;;;;;;5063439;28;20079;-58
2022/03/01 00:55:06;;;;;;;14.88;11.13;;;1.90;99.90;;;;;;5068692;28;20057;-58
2022/03/01 00:57:32;;;;;;;15.48;11.15;;;1.80;99.90;;;;;;5061216;28;20119;-59
2022/03/01 00:59:57;;;;;;;14.65;10.93;;;1.80;99.90;;;;;;5069024;28;20762;-58
2022/03/01 01:02:23;;;;;;;14.07;10.95;;;1.80;99.90;;;;;;5070291;28;20045;-59
2022/03/01 01:04:48;;;;;;;12.98;9.65;;;1.70;99.90;;;;;;5070824;28;20041;-59
2022/03/01 01:07:14;;;;;;;15.25;11.18;;;1.70;99.90;;;;;;5066503;28;20091;-59
2022/03/01 01:09:39;;;;;;;14.02;11.43;;;1.70;99.90;;;;;;5068284;28;20049;-58
2022/03/01 01:12:06;;;;;;;13.75;10.55;;;1.70;99.90;;;;;;5059543;28;20198;-58
2022/03/01 01:14:31;;;;;;;15.20;11.15;;;1.70;99.90;;;;;;5057614;28;20585;-58
2022/03/01 01:16:57;;;;;;;13.85;11.63;;;1.60;99.90;;;;;;5062660;28;20134;-58
2022/03/01 01:19:22;;;;;;;13.50;10.98;;;1.60;99.90;;;;;;5061903;28;20562;-57
2022/03/01 01:24:32;;;;;;;13.90;11.20;;;1.60;99.90;;;;;;5063296;28;20051;-58
2022/03/01 01:26:57;;;;;;;14.02;11.13;;;1.60;99.90;;;;;;5062123;28;20044;-58
2022/03/01 01:29:23;;;;;;;16.83;12.13;;;1.60;99.90;;;;;;5058725;28;20418;-57
2022/03/01 01:31:48;;;;;;;17.45;11.50;;;1.60;99.90;;;;;;5062065;28;20525;-59
2022/03/01 01:34:14;;;;;;;14.85;11.50;;;1.60;99.90;;;;;;5061576;28;20040;-59
2022/03/01 01:36:39;;;;;;;18.58;11.65;;;1.50;99.90;;;;;;5061446;28;20405;-59
2022/03/01 01:39:05;;;;;;;16.42;12.00;;;1.50;99.90;;;;;;5063151;28;20395;-59
2022/03/01 01:41:31;;;;;;;14.35;11.02;;;1.50;99.90;;;;;;5061885;28;20044;-59
2022/03/01 01:43:57;;;;;;;15.57;11.52;;;;;;;;;;5061491;28;20041;-58
2022/03/01 01:46:22;;;;;;;15.45;12.63;;;1.50;99.90;;;;;;5062488;28;20639;-57
2022/03/01 01:48:48;;;;;;;16.17;12.05;;;1.40;99.90;;;;;;5064943;28;20048;-58
2022/03/01 01:51:14;;;;;;;15.55;12.18;;;1.50;99.90;;;;;;5065899;28;20130;-58
2022/03/01 01:53:39;;;;;;;17.40;12.70;;;1.50;99.90;;;;;;5064415;28;20098;-59
2022/03/01 01:56:05;;;;;;;16.10;12.40;;;1.50;99.90;;;;;;5063872;28;20041;-58
2022/03/01 01:58:30;;;;;;;16.08;12.57;;;1.50;99.90;;;;;;5065738;28;20036;-58
2022/03/01 02:00:56;;;;;;;15.35;12.18;;;1.40;99.90;;;;;;5065945;28;20044;-58
2022/03/01 02:03:21;;;;;;;15.82;12.10;;;1.40;99.90;;;;;;5063477;28;20070;-58
2022/03/01 02:05:47;;;;;;;14.35;11.70;;;1.40;99.90;;;;;;5065021;28;20036;-58
2022/03/01 02:08:12;;;;;;;16.75;12.27;;;1.40;99.90;;;;;;5066178;28;21365;-59
2022/03/01 02:10:38;;;;;;;14.90;11.90;;;1.30;99.90;;;;;;5066259;28;20121;-59
2022/03/01 02:13:03;;;;;;;18.17;12.43;;;1.20;99.90;;;;;;5063432;28;20040;-60
2022/03/01 02:15:29;;;;;;;19.75;11.70;;;1.30;99.90;;;;;;5064676;28;20422;-58
2022/03/01 02:17:55;;;;;;;15.40;12.00;;;1.30;99.90;;;;;;5060425;28;20553;-58
2022/03/01 02:20:23;;;;;;;15.90;12.20;;;1.20;99.90;;;;;;5064422;28;20032;-58
2022/03/01 02:22:55;;;;;;;15.73;12.77;;;1.20;99.90;;;;;;5064007;28;20531;-56
2022/03/01 02:25:21;;;;;;;14.10;12.02;;;1.20;99.90;;;;;;5065188;28;20059;-59
2022/03/01 02:27:47;;;;;;;16.05;12.07;;;1.20;99.90;;;;;;5062769;28;20474;-59
2022/03/01 02:30:13;;;;;;;17.30;13.13;;;1.20;99.90;;;;;;5064896;28;20131;-58
2022/03/01 02:32:40;;;;;;;15.25;11.95;;;1.20;99.90;;;;;;5064977;28;20190;-59
2022/03/01 02:35:07;;;;;;;17.97;12.37;;;1.20;99.90;;;;;;5063550;28;20036;-58
2022/03/01 02:37:33;;;;;;;16.42;11.77;;;1.20;99.90;;;;;;5066022;28;20416;-57
2022/03/01 02:39:59;;;;;;;18.40;12.27;;;1.20;99.90;;;;;;5064579;28;20036;-56
2022/03/01 02:42:27;;;;;;;17.50;12.07;;;1.20;99.90;;;;;;5063292;28;20115;-58
2022/03/01 02:44:53;;;;;;;17.30;11.63;;;1.20;99.90;;;;;;5064003;28;20189;-59
2022/03/01 02:47:18;;;;;;;16.38;12.30;;;1.20;99.90;;;;;;5061131;28;20144;-56
2022/03/01 02:52:12;;;;;;;15.13;11.45;;;1.10;99.90;;;;;;5117868;22;20052;-47
2022/03/01 02:54:38;;;;;;;15.98;11.73;;;1.10;99.90;;;;;;5081461;28;20528;-49
2022/03/01 02:57:04;;;;;;;16.50;12.00;;;1.20;99.90;;;;;;5083181;28;20066;-54
2022/03/01 02:59:30;;;;;;;14.38;11.57;;;1.10;99.90;;;;;;5082381;28;20123;-50
2022/03/01 03:01:56;;;;;;;18.55;12.38;;;1.20;99.90;;;;;;5083494;28;20139;-50
2022/03/01 03:04:22;;;;;;;15.18;12.15;;;1.20;99.90;;;;;;5081628;28;20557;-51
2022/03/01 03:06:49;;;;;;;16.55;12.05;;;1.20;99.90;;;;;;5082374;28;20153;-53
2022/03/01 03:09:15;;;;;;;15.05;11.85;;;1.20;99.90;;;;;;5081574;28;20490;-53
2022/03/01 03:11:40;;;;;;;17.15;12.68;;;1.20;99.90;;;;;;5082397;28;20055;-50
2022/03/01 03:14:06;;;;;;;15.18;12.10;;;1.10;99.90;;;;;;5080010;28;20228;-50
2022/03/01 03:16:32;;;;;;;15.98;12.48;;;1.10;99.90;;;;;;5081522;28;21016;-52
2022/03/01 03:18:57;;;;;;;17.35;12.75;;;1.00;99.90;;;;;;5081824;28;20048;-49
2022/03/01 03:21:23;;;;;;;17.95;13.50;;;1.00;99.90;;;;;;5081516;28;20046;-51
2022/03/01 03:23:48;;;;;;;16.23;12.85;;;0.90;99.90;;;;;;5081083;28;20392;-49
2022/03/01 03:26:14;;;;;;;16.88;12.75;;;0.90;99.90;;;;;;5081487;28;20043;-49
2022/03/01 03:28:40;;;;;;;18.35;12.82;;;0.80;99.90;;;;;;5081769;28;20036;-49
2022/03/01 03:31:06;;;;;;;15.20;12.38;;;0.80;99.90;;;;;;5082492;28;20052;-49
2022/03/01 03:33:32;;;;;;;15.60;12.45;;;0.80;99.90;;;;;;5082806;28;21239;-49
2022/03/01 03:35:58;;;;;;;16.17;12.48;;;0.80;99.90;;;;;;5081615;28;20043;-50
2022/03/01 03:38:25;;;;;;;15.85;12.38;;;0.70;99.90;;;;;;5082402;28;20040;-50
2022/03/01 03:40:51;;;;;;;16.90;12.73;;;0.70;99.90;;;;;;5080290;28;20036;-50
2022/03/01 03:43:17;;;;;;;18.15;12.88;;;0.70;99.90;;;;;;5082425;28;20127;-50
2022/03/01 03:45:43;;;;;;;17.88;13.15;;;0.60;99.90;;;;;;5078737;28;20486;-50
2022/03/01 03:48:08;;;;;;;17.05;12.10;;;0.60;99.90;;;;;;5079650;28;20036;-49
2022/03/01 03:50:34;;;;;;;19.10;13.15;;;0.70;99.90;;;;;;5043680;28;1011406;-49
2022/03/01 03:53:00;;;;;;;18.40;13.02;;;0.60;99.90;;;;;;5069386;28;20052;-50
2022/03/01 03:55:26;;;;;;;19.58;13.18;;;0.70;99.90;;;;;;5065497;28;20032;-49
2022/03/01 03:57:51;;;;;;;16.50;12.68;;;0.60;99.90;;;;;;5064916;28;20043;-51
2022/03/01 04:00:18;;;;;;;15.82;13.10;;;0.70;99.90;;;;;;5066949;28;20032;-51
2022/03/01 04:02:45;;;;;;;19.70;13.43;;;0.70;99.90;;;;;;5063522;28;20129;-51
2022/03/01 04:05:15;;;;;;;17.17;13.07;;;0.70;99.90;;;;;;5065044;28;20052;-51
2022/03/01 04:07:44;;;;;;;17.27;13.40;;;0.70;99.90;;;;;;5065282;28;20513;-49
2022/03/01 04:10:11;;;;;;;18.15;13.45;;;0.70;99.90;;;;;;5064050;28;20045;-50
2022/03/01 04:12:37;;;;;;;18.20;12.55;;;0.70;99.90;;;;;;5065221;28;20508;-51
2022/03/01 04:15:04;;;;;;;17.95;13.15;;;0.80;99.90;;;;;;5065007;28;20040;-49
2022/03/01 04:17:30;;;;;;;16.48;12.90;;;0.80;99.90;;;;;;5065429;28;20036;-49
2022/03/01 04:19:56;;;;;;;18.77;13.25;;;0.80;99.90;;;;;;5065722;28;20037;-50
2022/03/01 04:22:22;;;;;;;17.00;12.98;;;0.80;99.90;;;;;;5065319;28;20129;-48
2022/03/01 04:24:47;;;;;;;18.17;13.40;;;0.90;99.90;;;;;;5067300;28;20040;-49
2022/03/01 04:27:13;;;;;;;14.95;12.77;;;0.90;99.90;;;;;;5065313;28;20036;-50
2022/03/01 04:29:39;;;;;;;19.25;13.80;;;0.90;99.90;;;;;;5068222;28;20129;-50
2022/03/01 04:32:05;;;;;;;20.63;13.38;;;0.90;99.90;;;;;;5069895;28;20047;-52
2022/03/01 04:34:31;;;;;;;18.33;14.27;;;1.00;99.90;;;;;;5066031;28;20105;-49
2022/03/01 04:36:56;;;;;;;17.35;13.05;;;1.00;99.90;;;;;;5066997;28;20040;-50
2022/03/01 04:39:22;;;;;;;18.23;13.10;;;1.00;99.90;;;;;;5065309;28;20074;-49
2022/03/01 04:41:48;;;;;;;16.75;13.05;;;1.00;99.90;;;;;;5064439;28;20048;-51
2022/03/01 04:44:14;;;;;;;20.55;13.85;;;1.10;99.90;;;;;;5065273;28;20048;-49
2022/03/01 04:46:41;;;;;;;21.70;13.32;;;1.10;99.90;;;;;;5065085;28;20037;-50
2022/03/01 04:49:06;;;;;;;16.85;13.32;;;1.10;99.90;;;;;;5063403;28;20042;-49
2022/03/01 04:51:32;;;;;;;19.20;13.35;;;1.00;99.90;;;;;;5064331;28;20044;-50
2022/03/01 04:53:58;;;;;;;16.27;13.02;;;1.00;99.90;;;;;;5068683;28;20041;-51
2022/03/01 04:56:24;;;;;;;18.92;12.90;;;1.10;99.90;;;;;;5070546;28;20053;-49
2022/03/01 04:58:51;;;;;;;16.95;12.48;;;1.10;99.90;;;;;;5071114;28;20059;-49
2022/03/01 05:01:17;;;;;;;17.98;13.27;;;1.20;99.90;;;;;;5067523;28;20041;-50
2022/03/01 05:03:42;;;;;;;15.48;12.73;;;1.20;99.90;;;;;;5071156;28;20043;-49
2022/03/01 05:06:08;;;;;;;17.52;12.90;;;1.20;99.90;;;;;;5057244;28;20107;-50
2022/03/01 05:08:33;;;;;;;17.52;13.35;;;1.20;99.90;;;;;;5079689;28;20064;-49
2022/03/01 05:11:00;;;;;;;17.15;13.45;;;1.10;99.90;;;;;;5069916;28;20162;-49
2022/03/01 05:13:26;;;;;;;17.02;13.20;;;1.10;99.90;;;;;;5075454;28;20097;-50
2022/03/01 05:15:52;;;;;;;17.95;13.55;;;1.20;99.90;;;;;;5058695;28;20047;-49
2022/03/01 05:18:18;;;;;;;16.08;13.63;;;1.10;99.90;;;;;;5070054;28;20040;-49
2022/03/01 05:20:44;;;;;;;18.75;14.15;;;1.20;99.90;;;;;;5081107;28;20132;-49
2022/03/01 05:23:09;;;;;;;17.42;13.65;;;1.20;99.90;;;;;;5090086;28;20067;-49
2022/03/01 05:25:35;;;;;;;18.63;13.40;;;1.20;99.90;;;;;;5060185;28;20067;-49
2022/03/01 05:28:01;;;;;;;20.33;14.35;;;1.20;99.90;;;;;;5090417;28;20051;-49
2022/03/01 05:30:26;;;;;;;17.58;14.38;;;1.20;99.90;;;;;;5074930;28;20032;-50
2022/03/01 05:32:54;;;;;;;19.17;14.02;;;1.20;99.90;;;;;;5085544;28;20036;-49
2022/03/01 05:35:22;;;;;;;17.48;14.13;;;1.30;99.90;;;;;;5073682;28;20041;-47
2022/03/01 05:37:49;;;;;;;;;;;1.30;99.90;;;;;;5082091;28;20481;-47
2022/03/01 05:40:16;;;;;;;20.65;13.93;;;1.30;99.90;;;;;;5087833;28;19930;-48
2022/03/01 05:42:43;;;;;;;19.35;14.00;;;1.40;99.90;;;;;;5088846;28;20028;-47
2022/03/01 05:45:09;;;;;;;20.17;14.13;;;1.40;99.90;;;;;;5093861;28;20091;-48
2022/03/01 05:47:34;;;;;;;20.20;14.35;;;1.30;99.90;;;;;;5089258;28;20040;-47
2022/03/01 05:50:00;;;;;;;18.85;14.80;;;1.30;99.90;;;;;;5075674;28;20055;-49
2022/03/01 05:52:25;;;;;;;22.25;14.68;;;1.30;99.90;;;;;;5090989;28;20060;-48
2022/03/01 05:54:51;;;;;;;20.05;13.77;;;1.40;99.90;;;;;;5091805;28;20151;-47
2022/03/01 05:57:16;;;;;;;20.67;14.95;;;1.30;99.90;;;;;;5079406;28;20041;-48
2022/03/01 05:59:42;;;;;;;17.52;14.60;;;1.30;99.90;;;;;;5091211;28;20055;-48
2022/03/01 06:02:08;;;;;;;21.00;14.80;;;1.30;99.90;;;;;;5087717;28;20041;-48
2022/03/01 06:04:34;;;;;;;18.65;14.18;;;1.30;99.90;;;;;;5069599;28;20047;-49
2022/03/01 06:06:59;;;;;;;19.35;14.70;;;1.30;99.90;;;;;;5067605;28;20040;-48
2022/03/01 06:09:25;;;;;;;21.30;15.35;;;1.30;99.90;;;;;;5066974;28;20119;-48
2022/03/01 06:11:50;;;;;;;21.75;14.95;;;1.30;99.90;;;;;;5066043;28;20066;-50
2022/03/01 06:14:16;;;;;;;18.40;14.45;;;1.30;99.90;;;;;;5068516;28;20130;-47
2022/03/01 06:16:43;;;;;;;23.83;15.68;;;1.30;99.90;;;;;;5068309;28;20048;-50
2022/03/01 06:19:08;;;;;;;22.95;15.90;;;1.30;99.90;;;;;;5067437;28;20048;-48
2022/03/01 06:21:34;;;;;;;19.38;14.82;;;1.40;99.90;;;;;;5069131;28;20444;-47
2022/03/01 06:24:01;;;;;;;19.73;14.93;;;1.40;99.90;;;;;;5074379;28;20058;-47
2022/03/01 06:26:27;;;;;;;20.52;15.38;;;1.40;99.90;;;;;;5065540;28;20473;-49
2022/03/01 06:28:52;;;;;;;21.77;15.85;;;1.40;99.90;;;;;;5068550;28;20079;-50
2022/03/01 06:31:18;;;;;;;19.75;15.27;;;1.30;99.90;;;;;;5068335;28;20398;-49
2022/03/01 06:33:44;;;;;;;19.00;15.00;;;1.30;99.90;;;;;;5070285;28;20443;-49
2022/03/01 06:36:10;;;;;;;21.00;14.98;;;1.30;99.90;;;;;;5065552;28;20048;-48
2022/03/01 06:38:35;;;;;;;18.75;14.98;;;1.30;99.90;;;;;;5067661;28;20080;-48
2022/03/01 06:41:01;;;;;;;21.27;14.82;;;1.30;99.90;;;;;;5067765;28;20082;-49
2022/03/01 06:43:26;;;;;;;19.05;14.40;;;1.30;99.90;;;;;;5068237;28;20512;-48
2022/03/01 06:45:52;;;;;;;21.88;15.65;;;1.30;99.90;;;;;;5067284;28;20064;-48
2022/03/01 06:48:18;;;;;;;19.13;14.98;;;1.40;99.90;;;;;;5066120;28;20550;-48
2022/03/01 06:50:44;;;;;;;22.27;14.63;;;1.30;99.90;;;;;;5066869;28;20052;-50
2022/03/01 06:53:13;;;;;;;18.75;14.82;;;1.30;99.90;;;;;;5067902;28;20044;-48
2022/03/01 06:55:40;;;;;;;21.23;15.40;;;1.30;99.90;;;;;;5065736;28;20470;-47
2022/03/01 06:58:06;;;;;;;20.27;15.45;;;1.40;99.90;;;;;;5065631;28;20055;-48
2022/03/01 07:00:31;;;;;;;22.60;15.35;;;1.40;99.90;;;;;;5066398;28;20040;-48
2022/03/01 07:02:57;;;;;;;18.52;14.25;;;1.50;99.90;;;;;;5066488;28;20194;-48
2022/03/01 07:05:23;;;;;;;22.38;14.75;;;1.60;99.90;;;;;;5066968;28;20039;-48
2022/03/01 07:07:49;;;;;;;20.30;15.07;;;1.60;99.90;;;;;;5064456;28;20653;-51
2022/03/01 07:10:15;;;;;;;19.73;14.85;;;1.80;99.90;;;;;;5047460;28;20213;-48
2022/03/01 07:12:41;;;;;;;22.38;14.43;;;1.80;99.90;;;;;;5048478;28;20039;-50
2022/03/01 07:15:08;;;;;;;20.75;14.88;;;1.90;99.90;;;;;;5063363;28;20068;-48
2022/03/01 07:17:34;;;;;;;17.83;14.43;;;2.00;99.90;;;;;;5065131;28;20036;-48
2022/03/01 07:19:59;;;;;;;17.65;14.45;;;2.20;99.90;;;;;;5066044;28;20041;-49
2022/03/01 07:22:25;;;;;;;18.83;14.38;;;2.30;99.90;;;;;;5064900;28;20414;-52
2022/03/01 07:24:50;;;;;;;17.27;14.10;;;2.50;99.90;;;;;;5065799;28;20048;-48
2022/03/01 07:27:16;;;;;;;19.80;13.63;;;2.70;99.90;;;;;;5048809;28;20040;-48
2022/03/01 07:29:42;;;;;;;16.13;12.50;;;2.90;99.90;;;;;;5064886;28;20071;-51
2022/03/01 07:32:08;;;;;;;18.77;13.77;;;3.00;99.90;;;;;;5064723;28;20044;-49
2022/03/01 07:34:34;;;;;;;16.58;13.38;;;3.10;99.90;;;;;;5067870;28;20040;-49
2022/03/01 07:37:01;;;;;;;16.70;12.85;;;3.20;99.90;;;;;;5066282;28;20140;-49
2022/03/01 07:39:27;;;;;;;16.90;13.18;;;3.30;99.90;;;;;;5064923;28;20043;-49
2022/03/01 07:41:52;;;;;;;16.70;12.85;;;3.40;99.90;;;;;;5063596;28;20037;-49
2022/03/01 07:44:19;;;;;;;16.33;12.73;;;3.50;99.90;;;;;;5064806;28;20094;-53
2022/03/01 07:46:45;;;;;;;16.30;11.73;;;3.60;99.90;;;;;;5067411;28;20043;-50
2022/03/01 07:49:10;;;;;;;14.68;11.80;;;3.80;99.90;;;;;;5050193;28;20054;-50
2022/03/01 07:51:36;;;;;;;15.18;11.70;;;3.90;99.90;;;;;;5048184;28;20048;-48
2022/03/01 07:54:02;;;;;;;16.02;12.20;;;4.10;99.90;;;;;;5064689;28;20048;-50
2022/03/01 07:56:28;;;;;;;16.58;11.90;;;4.20;99.90;;;;;;5064214;28;20049;-49
2022/03/01 07:58:54;;;;;;;15.85;12.77;;;4.30;99.90;;;;;;5073582;28;20044;-49
2022/03/01 08:01:20;;;;;;;15.50;12.38;;;4.40;99.90;;;;;;5075663;28;20091;-49
2022/03/01 08:03:46;;;;;;;16.27;11.15;;;4.60;99.90;;;;;;5077613;28;20455;-48
2022/03/01 08:06:12;;;;;;;14.45;11.82;;;4.60;99.90;;;;;;5084406;28;20036;-48
2022/03/01 08:08:37;;;;;;;13.85;11.07;;;4.70;99.90;;;;;;5053555;28;20058;-48
2022/03/01 08:11:04;;;;;;;15.43;11.10;;;4.90;99.90;;;;;;5072450;28;20520;-48
2022/03/01 08:13:31;;;;;;;15.98;11.90;;;5.00;99.90;;;;;;5070689;28;20040;-49
2022/03/01 08:15:56;;;;;;;16.42;11.63;;;5.10;99.90;;;;;;5064546;28;20032;-48
2022/03/01 08:18:22;;;;;;;15.52;11.77;;;5.30;99.90;;;;;;5065188;28;20028;-48
2022/03/01 08:20:47;;;;;;;15.77;11.85;;;5.40;99.90;;;;;;5068007;28;20040;-49
2022/03/01 08:23:13;;;;;;;18.20;12.07;;;5.60;99.90;;;;;;5065331;28;20083;-49
2022/03/01 08:25:39;;;;;;;15.57;11.85;;;5.70;99.90;;;;;;5047654;28;20128;-48
2022/03/01 08:28:04;;;;;;;18.58;11.55;;;5.80;99.90;;;;;;5064371;28;20037;-49
2022/03/01 08:30:30;;;;;;;19.05;12.02;;;5.70;99.90;;;;;;5065715;28;20176;-50
2022/03/01 08:32:56;;;;;;;18.83;12.82;;;5.70;99.90;;;;;;5065588;28;20123;-50
2022/03/01 08:35:22;;;;;;;18.02;12.38;;;5.70;99.90;;;;;;5067517;28;20040;-49
2022/03/01 08:37:49;;;;;;;14.55;12.02;;;5.60;99.90;;;;;;5067767;28;20320;-51
2022/03/01 08:40:18;;;;;;;15.85;12.48;;;5.60;99.90;;;;;;5073427;28;20138;-48
2022/03/01 08:42:45;;;;;;;15.75;12.50;;;5.60;99.90;;;;;;5045925;28;20043;-50
2022/03/01 08:45:11;;;;;;;16.23;12.98;;;5.50;99.90;;;;;;5067681;28;20106;-49
2022/03/01 08:47:37;;;;;;;16.23;12.35;;;5.50;99.90;;;;;;5079630;28;20040;-49
2022/03/01 08:50:03;;;;;;;15.13;12.10;;;5.50;99.90;;;;;;5065552;28;20028;-48
2022/03/01 08:52:29;;;;;;;16.95;12.18;;;5.50;99.90;;;;;;5050702;28;20048;-50
2022/03/01 08:54:54;;;;;;;14.25;12.05;;;5.50;99.90;;;;;;5065738;28;20039;-50
2022/03/01 08:57:20;;;;;;;17.20;12.23;;;5.60;99.90;;;;;;5073624;28;20044;-52
2022/03/01 08:59:45;;;;;;;18.38;12.60;;;5.60;99.90;;;;;;5062502;28;20093;-51
2022/03/01 09:02:11;;;;;;;16.90;12.93;;;5.70;99.90;;;;;;5064553;28;20083;-49
2022/03/01 09:04:36;;;;;;;18.20;13.30;;;5.80;99.90;;;;;;5065486;28;20395;-52
2022/03/01 09:07:04;;;;;;;16.83;11.93;;;6.00;99.90;;;;;;5054999;28;20083;-50
2022/03/01 09:09:31;;;;;;;15.05;12.30;;;6.10;99.90;;;;;;5066028;28;20090;-49
2022/03/01 09:11:57;;;;;;;19.50;12.70;;;6.30;99.90;;;;;;5066317;28;20059;-51
2022/03/01 09:14:23;;;;;;;15.93;12.75;;;6.40;99.90;;;;;;5065734;28;20086;-49
2022/03/01 09:16:48;;;;;;;16.92;12.93;;;6.60;99.90;;;;;;5063867;28;20036;-50
2022/03/01 09:19:14;;;;;;;17.30;12.02;;;6.90;99.90;;;;;;5064592;28;20041;-53
2022/03/01 09:21:40;;;;;;;16.45;12.05;;;7.00;99.90;;;;;;5071172;28;20101;-48
2022/03/01 09:24:06;;;;;;;14.73;12.18;;;7.10;99.90;;;;;;5048007;28;20119;-50
2022/03/01 09:26:31;;;;;;;15.48;12.68;;;7.10;99.90;;;;;;5064849;28;20412;-48
2022/03/01 09:28:57;;;;;;;14.48;12.02;;;7.10;99.90;;;;;;5069293;28;20040;-49
2022/03/01 09:31:23;;;;;;;17.52;12.73;;;7.20;99.90;;;;;;5063335;28;20060;-50
2022/03/01 09:33:48;;;;;;;15.45;12.38;;;7.30;99.90;;;;;;5062663;28;20037;-50
2022/03/01 09:36:14;;;;;;;13.73;11.75;;;7.40;99.90;;;;;;5063717;28;20032;-49
2022/03/01 09:38:41;;;;;;;16.50;12.73;;;7.50;99.90;;;;;;5062265;28;20405;-49
2022/03/01 09:41:08;;;;;;;15.55;12.10;;;7.60;99.90;;;;;;5070941;28;20041;-49
2022/03/01 09:43:38;;;;;;;18.33;12.50;;;7.60;98.70;;;;;;5053925;28;20079;-50
2022/03/01 09:46:05;;;;;;;14.48;13.00;;;7.60;99.90;;;;;;5064299;28;20052;-49
2022/03/01 09:48:30;;;;;;;15.15;12.27;;;7.60;99.40;;;;;;5062584;28;20043;-48
2022/03/01 09:50:59;;;;;;;15.48;11.90;;;7.70;99.50;;;;;;5072965;28;20040;-49
2022/03/01 09:53:25;;;;;;;16.63;12.32;;;7.60;99.50;;;;;;5064379;28;20036;-48
2022/03/01 09:55:52;;;;;;;16.40;12.43;;;7.70;99.50;;;;;;5062564;28;20048;-49
2022/03/01 09:58:17;;;;;;;18.48;12.52;;;8.00;99.90;;;;;;5044241;28;20474;-49
2022/03/01 10:00:45;;;;;;;17.30;12.80;;;8.20;99.90;;;;;;5063224;28;21772;-49
2022/03/01 10:03:15;;;;;;;15.68;11.82;;;8.20;98.00;;;;;;5059855;28;20121;-48
2022/03/01 10:05:42;;;;;;;15.88;12.65;;;8.30;98.70;;;;;;5045776;28;20509;-50
2022/03/01 10:08:13;;;;;;;16.05;12.55;;;8.20;95.20;;;;;;5067315;28;20040;-50
2022/03/01 10:10:42;;;;;;;14.70;12.82;;;8.30;97.20;;;;;;5068392;28;20120;-48
2022/03/01 10:13:08;;;;;;;15.75;12.25;;;8.30;97.80;;;;;;5067898;28;20476;-53
2022/03/01 10:15:34;;;;;;;17.75;12.40;;;8.20;96.60;;;;;;5067738;28;20079;-51
2022/03/01 10:18:09;;;;;;;14.95;12.43;;;8.20;96.90;;;;;;5068064;28;20130;-49
2022/03/01 10:20:35;;;;;;;18.55;12.93;;;8.20;97.20;;;;;;5066409;28;20066;-49
2022/03/01 10:23:01;;;;;;;15.48;12.70;;;8.20;98.40;;;;;;5069378;28;20029;-50
2022/03/01 10:25:27;;;;;;;15.27;12.38;;;8.20;97.90;;;;;;5071410;28;20052;-49
2022/03/01 10:27:54;;;;;;;15.98;11.98;;;8.30;99.90;;;;;;5068396;28;20370;-49
2022/03/01 10:30:29;;;;;;;16.20;12.73;;;8.30;99.70;;;;;;5070506;28;20051;-49
2022/03/01 10:33:11;;;;;;;16.42;12.40;;;8.40;99.90;;;;;;5069471;28;20060;-50
2022/03/01 10:35:40;;;;;;;18.63;12.45;;;8.60;99.90;;;;;;5067894;28;20044;-48
2022/03/01 10:38:07;;;;;;;18.17;12.52;;;8.70;97.40;;;;;;5069436;28;20524;-49
2022/03/01 10:40:33;;;;;;;16.98;12.25;;;8.80;99.80;;;;;;5067255;28;20043;-49
2022/03/01 10:43:01;;;;;;;15.52;13.15;;;8.80;97.70;;;;;;5068233;28;20060;-49
2022/03/01 10:45:38;;;;;;;17.52;12.48;;;8.90;98.20;;;;;;5067287;28;20051;-50
2022/03/01 10:48:05;;;;;;;18.23;12.65;;;9.00;99.60;;;;;;5066450;28;20049;-50
2022/03/01 10:50:31;;;;;;;17.90;12.90;;;9.10;99.60;;;;;;5055449;28;20127;-50
2022/03/01 10:52:57;;;;;;;16.27;12.75;;;9.20;99.90;;;;;;5072589;28;20172;-48
2022/03/01 10:55:25;;;;;;;15.77;13.10;;;9.20;99.90;;;;;;5067422;28;20646;-48
2022/03/01 10:58:10;;;;;;;17.38;13.18;;;9.20;99.90;;;;;;5049988;28;20051;-49
2022/03/01 11:00:37;;;;;;;14.93;11.68;;;9.30;99.90;;;;;;5071046;28;20514;-50
2022/03/01 11:03:04;;;;;;;16.02;12.38;;;9.50;98.70;;;;;;5069356;28;20044;-49
2022/03/01 11:05:31;;;;;;;14.00;12.23;;;9.50;98.10;;;;;;5068308;28;20052;-49
2022/03/01 11:08:02;;;;;;;15.43;12.70;;;9.70;96.40;;;;;;5054348;28;20279;-50
2022/03/01 11:10:31;;;;;;;17.15;12.00;;;9.90;97.90;;;;;;5053734;28;20796;-48
2022/03/01 11:13:00;;;;;;;15.82;12.90;;;10.00;96.20;;;;;;5072926;28;20086;-48
2022/03/01 11:15:25;;;;;;;14.05;12.55;;;10.10;92.40;;;;;;5073642;28;20127;-49
2022/03/01 11:18:03;;;;;;;14.25;12.75;;;10.30;95.20;;;;;;5072059;28;20542;-49
2022/03/01 11:20:35;;;;;;;15.02;12.20;;;10.30;94.70;;;;;;5073905;28;20052;-50
2022/03/01 11:23:10;;;;;;;17.55;12.40;;;10.40;95.50;;;;;;5072284;28;20048;-53
2022/03/01 11:25:46;;;;;;;15.50;12.50;;;10.60;94.30;;;;;;5055772;28;20052;-50
2022/03/01 11:28:12;;;;;;;17.63;12.48;;;10.50;89.20;;;;;;5072384;28;20391;-50
2022/03/01 11:30:41;;;;;;;15.50;12.48;;;10.80;94.70;;;;;;5073510;28;20536;-51
2022/03/01 11:33:07;;;;;;;14.63;11.88;;;10.90;92.60;;;;;;5072893;28;20088;-48
2022/03/01 11:35:36;;;;;;;15.38;12.30;;;11.20;92.70;;;;;;5067023;28;20060;-50
2022/03/01 11:38:04;;;;;;;13.85;11.60;;;11.20;91.10;;;;;;5048111;28;20473;-52
2022/03/01 11:40:33;;;;;;;17.58;12.50;;;11.10;86.80;;;;;;5072266;28;20040;-49
2022/03/01 11:43:22;;;;;;;14.15;12.35;;;11.00;90.30;;;;;;5069220;28;20047;-50
2022/03/01 11:45:53;;;;;;;13.30;11.88;;;10.90;84.50;;;;;;5073338;28;20090;-50
2022/03/01 11:48:23;;;;;;;17.00;12.07;;;10.90;89.70;;;;;;5071716;28;20123;-49
2022/03/01 11:50:57;;;;;;;14.93;12.30;;;10.80;90.40;;;;;;5069666;28;21212;-50
2022/03/01 11:53:25;;;;;;;14.15;11.68;;;10.90;89.70;;;;;;5069421;28;20375;-51
2022/03/01 11:55:56;;;;;;;16.33;12.90;;;10.70;87.20;;;;;;5071779;28;20041;-49
2022/03/01 11:58:23;;;;;;;14.68;12.18;;;10.60;83.50;;;;;;5070123;28;20037;-50
2022/03/01 12:00:50;;;;;;;15.32;12.23;;;10.50;85.30;;;;;;5073335;28;20068;-50
2022/03/01 12:03:36;;;;;;;14.38;12.20;;;10.50;87.60;;;;;;5073568;28;20504;-51
2022/03/01 12:06:04;;;;;;;15.80;12.68;;;10.50;83.40;;;;;;5060845;28;20076;-51
2022/03/01 12:08:30;;;;;;;16.02;13.30;;;10.50;90.20;;;;;;5072810;28;20047;-53
2022/03/01 12:10:58;;;;;;;16.83;12.43;;;10.50;93.00;;;;;;5071158;28;20074;-49
2022/03/01 12:13:41;;;;;;;16.38;12.48;;;10.60;92.80;;;;;;5069252;28;20048;-52
2022/03/01 12:16:09;;;;;;;14.88;12.02;;;10.60;93.90;;;;;;5070053;28;20072;-51
2022/03/01 12:18:37;;;;;;;14.57;12.70;;;10.60;92.60;;;;;;5068196;28;20089;-50
2022/03/01 12:21:08;;;;;;;14.35;12.15;;;10.70;93.30;;;;;;5050572;28;20041;-50
2022/03/01 12:23:37;;;;;;;14.40;12.18;;;10.60;88.80;;;;;;5065570;28;20478;-49
2022/03/01 12:26:04;;;;;;;15.63;12.68;;;10.70;91.20;;;;;;5065251;28;20066;-49
2022/03/01 12:28:37;;;;;;;15.57;12.00;;;10.80;91.40;;;;;;5068022;28;20049;-52
2022/03/01 12:31:07;;;;;;;13.98;12.48;;;10.80;92.20;;;;;;5067858;28;20465;-51
2022/03/01 12:33:33;;;;;;;16.13;13.20;;;10.80;92.70;;;;;;5046121;28;20124;-50
2022/03/01 12:36:03;;;;;;;13.30;11.70;;;10.80;91.30;;;;;;5065259;28;20123;-49
2022/03/01 12:38:29;;;;;;;17.20;13.25;;;10.80;92.30;;;;;;5067331;28;20186;-50